sensor_id;sensor_type;location;lat;lon;timestamp;temperature;humidity
65770;DHT22;52512;47.650;8.578;2023-04-28T00:00:25;12.80;99.90
65770;DHT22;52512;47.650;8.578;2023-04-28T00:02:51;12.80;99.90
65770;DHT22;52512;47.650;8.578;2023-04-28T00:05:18;12.80;99.90
65770;DHT22;52512;47.650;8.578;2023-04-28T00:07:44;12.70;99.90
65770;DHT22;52512;47.650;8.578;2023-04-28T00:10:10;12.70;99.90
65770;DHT22;52512;47.650;8.578;2023-04-28T00:12:36;12.70;99.90
65770;DHT22;52512;47.650;8.578;2023-04-28T00:15:01;12.70;99.90
65770;DHT22;52512;47.650;8.578;2023-04-28T00:17:28;12.60;99.90
65770;DHT22;52512;47.650;8.578;2023-04-28T00:19:53;12.60;99.90
65770;DHT22;52512;47.650;8.578;2023-04-28T00:22:19;12.60;99.90
65770;DHT22;52512;47.650;8.578;2023-04-28T00:24:45;12.60;99.90
65770;DHT22;52512;47.650;8.578;2023-04-28T00:27:10;12.60;99.90
65770;DHT22;52512;47.650;8.578;2023-04-28T00:29:36;12.60;99.90
65770;DHT22;52512;47.650;8.578;2023-04-28T00:32:02;12.60;99.90
65770;DHT22;52512;47.650;8.578;2023-04-28T00:34:31;12.60;99.90
65770;DHT22;52512;47.650;8.578;2023-04-28T00:36:57;12.60;99.90
65770;DHT22;52512;47.650;8.578;2023-04-28T00:39:23;12.50;99.90
65770;DHT22;52512;47.650;8.578;2023-04-28T00:41:50;12.60;99.90
65770;DHT22;52512;47.650;8.578;2023-04-28T00:44:15;12.50;99.90
65770;DHT22;52512;47.650;8.578;2023-04-28T00:46:41;12.50;99.90
65770;DHT22;52512;47.650;8.578;2023-04-28T00:49:07;12.50;99.90
65770;DHT22;52512;47.650;8.578;2023-04-28T00:51:33;12.40;99.90
65770;DHT22;52512;47.650;8.578;2023-04-28T00:53:59;12.40;99.90
65770;DHT22;52512;47.650;8.578;2023-04-28T00:56:24;12.40;99.90
65770;DHT22;52512;47.650;8.578;2023-04-28T00:58:55;12.40;99.90
65770;DHT22;52512;47.650;8.578;2023-04-28T01:01:21;12.40;99.90
65770;DHT22;52512;47.650;8.578;2023-04-28T01:03:47;12.40;99.90
65770;DHT22;52512;47.650;8.578;2023-04-28T01:06:13;12.40;99.90
65770;DHT22;52512;47.650;8.578;2023-04-28T01:08:39;12.40;99.90
65770;DHT22;52512;47.650;8.578;2023-04-28T01:11:06;12.40;99.90
65770;DHT22;52512;47.650;8.578;2023-04-28T01:13:34;12.40;99.90
65770;DHT22;52512;47.650;8.578;2023-04-28T01:16:00;12.30;99.90
65770;DHT22;52512;47.650;8.578;2023-04-28T01:18:26;12.30;99.90
65770;DHT22;52512;47.650;8.578;2023-04-28T01:20:52;12.30;99.90
65770;DHT22;52512;47.650;8.578;2023-04-28T01:23:17;12.30;99.90
65770;DHT22;52512;47.650;8.578;2023-04-28T01:25:43;12.30;99.90
65770;DHT22;52512;47.650;8.578;2023-04-28T01:28:10;12.30;99.90
65770;DHT22;52512;47.650;8.578;2023-04-28T01:30:36;12.30;99.90
65770;DHT22;52512;47.650;8.578;2023-04-28T01:33:02;12.30;99.90
65770;DHT22;52512;47.650;8.578;2023-04-28T01:35:28;12.20;99.90
65770;DHT22;52512;47.650;8.578;2023-04-28T01:37:54;12.20;99.90
65770;DHT22;52512;47.650;8.578;2023-04-28T01:40:20;12.20;99.90
65770;DHT22;52512;47.650;8.578;2023-04-28T01:42:45;12.20;99.90
65770;DHT22;52512;47.650;8.578;2023-04-28T01:45:11;12.20;99.90
65770;DHT22;52512;47.650;8.578;2023-04-28T01:47:37;12.20;99.90
65770;DHT22;52512;47.650;8.578;2023-04-28T01:50:03;12.20;99.90
65770;DHT22;52512;47.650;8.578;2023-04-28T01:52:28;12.20;99.90
65770;DHT22;52512;47.650;8.578;2023-04-28T01:54:54;12.20;99.90
65770;DHT22;52512;47.650;8.578;2023-04-28T01:57:20;12.20;99.90
65770;DHT22;52512;47.650;8.578;2023-04-28T01:59:46;12.10;99.90
65770;DHT22;52512;47.650;8.578;2023-04-28T02:02:11;12.10;99.90
65770;DHT22;52512;47.650;8.578;2023-04-28T02:04:37;12.10;99.90
65770;DHT22;52512;47.650;8.578;2023-04-28T02:07:03;12.20;99.90
65770;DHT22;52512;47.650;8.578;2023-04-28T02:09:29;12.10;99.90
65770;DHT22;52512;47.650;8.578;2023-04-28T02:11:55;12.10;99.90
65770;DHT22;52512;47.650;8.578;2023-04-28T02:14:20;12.20;99.90
65770;DHT22;52512;47.650;8.578;2023-04-28T02:16:46;12.10;99.90
65770;DHT22;52512;47.650;8.578;2023-04-28T02:19:11;12.10;99.90
65770;DHT22;52512;47.650;8.578;2023-04-28T02:21:37;12.10;99.90
65770;DHT22;52512;47.650;8.578;2023-04-28T02:24:03;12.10;99.90
65770;DHT22;52512;47.650;8.578;2023-04-28T02:26:29;12.10;99.90
65770;DHT22;52512;47.650;8.578;2023-04-28T02:28:54;12.10;99.90
65770;DHT22;52512;47.650;8.578;2023-04-28T02:31:21;12.10;99.90
65770;DHT22;52512;47.650;8.578;2023-04-28T02:33:46;12.10;99.90
65770;DHT22;52512;47.650;8.578;2023-04-28T02:36:12;12.10;99.90
65770;DHT22;52512;47.650;8.578;2023-04-28T02:38:38;12.10;99.90
65770;DHT22;52512;47.650;8.578;2023-04-28T02:41:06;12.10;99.90
65770;DHT22;52512;47.650;8.578;2023-04-28T02:43:34;12.10;99.90
65770;DHT22;52512;47.650;8.578;2023-04-28T02:46:04;12.10;99.90
65770;DHT22;52512;47.650;8.578;2023-04-28T02:48:30;12.10;99.90
65770;DHT22;52512;47.650;8.578;2023-04-28T02:50:55;12.10;99.90
65770;DHT22;52512;47.650;8.578;2023-04-28T02:53:22;12.10;99.90
65770;DHT22;52512;47.650;8.578;2023-04-28T02:55:48;12.10;99.90
65770;DHT22;52512;47.650;8.578;2023-04-28T02:58:13;12.10;99.90
65770;DHT22;52512;47.650;8.578;2023-04-28T03:00:39;12.10;99.90
65770;DHT22;52512;47.650;8.578;2023-04-28T03:03:05;12.00;99.90
65770;DHT22;52512;47.650;8.578;2023-04-28T03:05:31;12.00;99.90
65770;DHT22;52512;47.650;8.578;2023-04-28T03:07:57;12.00;99.90
65770;DHT22;52512;47.650;8.578;2023-04-28T03:10:23;12.00;99.90
65770;DHT22;52512;47.650;8.578;2023-04-28T03:12:48;12.00;99.90
65770;DHT22;52512;47.650;8.578;2023-04-28T03:15:14;12.00;99.90
65770;DHT22;52512;47.650;8.578;2023-04-28T03:17:40;12.00;99.90
65770;DHT22;52512;47.650;8.578;2023-04-28T03:20:08;12.00;99.90
65770;DHT22;52512;47.650;8.578;2023-04-28T03:22:34;12.00;99.90
65770;DHT22;52512;47.650;8.578;2023-04-28T03:25:00;12.00;99.90
65770;DHT22;52512;47.650;8.578;2023-04-28T03:27:26;12.00;99.90
65770;DHT22;52512;47.650;8.578;2023-04-28T03:29:52;12.00;99.90
65770;DHT22;52512;47.650;8.578;2023-04-28T03:32:18;12.00;99.90
65770;DHT22;52512;47.650;8.578;2023-04-28T03:34:43;12.00;99.90
65770;DHT22;52512;47.650;8.578;2023-04-28T03:37:09;12.00;99.90
65770;DHT22;52512;47.650;8.578;2023-04-28T03:39:35;12.00;99.90
65770;DHT22;52512;47.650;8.578;2023-04-28T03:42:01;12.00;99.90
65770;DHT22;52512;47.650;8.578;2023-04-28T03:44:26;12.00;99.90
65770;DHT22;52512;47.650;8.578;2023-04-28T03:46:52;12.00;99.90
65770;DHT22;52512;47.650;8.578;2023-04-28T03:49:18;12.00;99.90
65770;DHT22;52512;47.650;8.578;2023-04-28T03:51:44;12.00;99.90
65770;DHT22;52512;47.650;8.578;2023-04-28T03:54:09;12.00;99.90
65770;DHT22;52512;47.650;8.578;2023-04-28T03:56:35;11.90;99.90
65770;DHT22;52512;47.650;8.578;2023-04-28T03:59:01;11.90;99.90
65770;DHT22;52512;47.650;8.578;2023-04-28T04:01:26;11.90;99.90
65770;DHT22;52512;47.650;8.578;2023-04-28T04:03:52;11.90;99.90
65770;DHT22;52512;47.650;8.578;2023-04-28T04:06:18;11.90;99.90
65770;DHT22;52512;47.650;8.578;2023-04-28T04:08:44;11.90;99.90
65770;DHT22;52512;47.650;8.578;2023-04-28T04:11:10;11.90;99.90
65770;DHT22;52512;47.650;8.578;2023-04-28T04:13:35;11.90;99.90
65770;DHT22;52512;47.650;8.578;2023-04-28T04:16:01;11.90;99.90
65770;DHT22;52512;47.650;8.578;2023-04-28T04:18:27;11.90;99.90
65770;DHT22;52512;47.650;8.578;2023-04-28T04:20:53;11.90;99.90
65770;DHT22;52512;47.650;8.578;2023-04-28T04:23:20;11.90;99.90
65770;DHT22;52512;47.650;8.578;2023-04-28T04:25:46;11.90;99.90
65770;DHT22;52512;47.650;8.578;2023-04-28T04:28:12;11.90;99.90
65770;DHT22;52512;47.650;8.578;2023-04-28T04:30:38;11.80;99.90
65770;DHT22;52512;47.650;8.578;2023-04-28T04:33:04;11.80;99.90
65770;DHT22;52512;47.650;8.578;2023-04-28T04:35:30;11.80;99.90
65770;DHT22;52512;47.650;8.578;2023-04-28T04:37:55;11.90;99.90
65770;DHT22;52512;47.650;8.578;2023-04-28T04:40:21;11.80;99.90
65770;DHT22;52512;47.650;8.578;2023-04-28T04:42:47;11.80;99.90
65770;DHT22;52512;47.650;8.578;2023-04-28T04:45:12;11.80;99.90
65770;DHT22;52512;47.650;8.578;2023-04-28T04:47:39;11.80;99.90
65770;DHT22;52512;47.650;8.578;2023-04-28T04:50:05;11.80;99.90
65770;DHT22;52512;47.650;8.578;2023-04-28T04:52:31;11.80;99.90
65770;DHT22;52512;47.650;8.578;2023-04-28T04:54:58;11.80;99.90
65770;DHT22;52512;47.650;8.578;2023-04-28T04:57:23;11.80;99.90
65770;DHT22;52512;47.650;8.578;2023-04-28T04:59:49;11.80;99.90
65770;DHT22;52512;47.650;8.578;2023-04-28T05:02:14;11.80;99.90
65770;DHT22;52512;47.650;8.578;2023-04-28T05:04:40;11.70;99.90
65770;DHT22;52512;47.650;8.578;2023-04-28T05:07:06;11.70;99.90
65770;DHT22;52512;47.650;8.578;2023-04-28T05:09:31;11.70;99.90
65770;DHT22;52512;47.650;8.578;2023-04-28T05:11:58;11.70;99.90
65770;DHT22;52512;47.650;8.578;2023-04-28T05:14:23;11.70;99.90
65770;DHT22;52512;47.650;8.578;2023-04-28T05:16:49;11.70;99.90
65770;DHT22;52512;47.650;8.578;2023-04-28T05:19:15;11.70;99.90
65770;DHT22;52512;47.650;8.578;2023-04-28T05:21:41;11.70;99.90
65770;DHT22;52512;47.650;8.578;2023-04-28T05:24:06;11.60;99.90
65770;DHT22;52512;47.650;8.578;2023-04-28T05:26:32;11.60;99.90
65770;DHT22;52512;47.650;8.578;2023-04-28T05:28:58;11.60;99.90
65770;DHT22;52512;47.650;8.578;2023-04-28T05:31:23;11.60;99.90
65770;DHT22;52512;47.650;8.578;2023-04-28T05:33:49;11.60;99.90
65770;DHT22;52512;47.650;8.578;2023-04-28T05:36:14;11.60;99.90
65770;DHT22;52512;47.650;8.578;2023-04-28T05:38:43;11.60;99.90
65770;DHT22;52512;47.650;8.578;2023-04-28T05:41:08;11.60;99.90
65770;DHT22;52512;47.650;8.578;2023-04-28T05:43:34;11.60;99.90
65770;DHT22;52512;47.650;8.578;2023-04-28T05:46:00;11.60;99.90
65770;DHT22;52512;47.650;8.578;2023-04-28T05:48:26;11.60;99.90
65770;DHT22;52512;47.650;8.578;2023-04-28T05:50:52;11.60;99.90
65770;DHT22;52512;47.650;8.578;2023-04-28T05:53:17;11.60;99.90
65770;DHT22;52512;47.650;8.578;2023-04-28T05:55:43;11.60;99.90
65770;DHT22;52512;47.650;8.578;2023-04-28T05:58:09;11.60;99.90
65770;DHT22;52512;47.650;8.578;2023-04-28T06:00:34;11.60;99.90
65770;DHT22;52512;47.650;8.578;2023-04-28T06:03:00;11.60;99.90
65770;DHT22;52512;47.650;8.578;2023-04-28T06:05:26;11.60;99.90
65770;DHT22;52512;47.650;8.578;2023-04-28T06:07:52;11.60;99.90
65770;DHT22;52512;47.650;8.578;2023-04-28T06:10:21;11.60;99.90
65770;DHT22;52512;47.650;8.578;2023-04-28T06:12:46;11.70;99.90
65770;DHT22;52512;47.650;8.578;2023-04-28T06:15:12;11.60;99.90
65770;DHT22;52512;47.650;8.578;2023-04-28T06:17:38;11.60;99.90
65770;DHT22;52512;47.650;8.578;2023-04-28T06:20:05;11.60;99.90
65770;DHT22;52512;47.650;8.578;2023-04-28T06:22:32;11.60;99.90
65770;DHT22;52512;47.650;8.578;2023-04-28T06:24:57;11.60;99.90
65770;DHT22;52512;47.650;8.578;2023-04-28T06:27:23;11.60;99.90
65770;DHT22;52512;47.650;8.578;2023-04-28T06:29:49;11.60;99.90
65770;DHT22;52512;47.650;8.578;2023-04-28T06:32:15;11.70;99.90
65770;DHT22;52512;47.650;8.578;2023-04-28T06:34:41;11.70;99.90
65770;DHT22;52512;47.650;8.578;2023-04-28T06:37:07;11.70;99.90
65770;DHT22;52512;47.650;8.578;2023-04-28T06:39:32;11.70;99.90
65770;DHT22;52512;47.650;8.578;2023-04-28T06:41:58;11.60;99.90
65770;DHT22;52512;47.650;8.578;2023-04-28T06:44:24;11.70;99.90
65770;DHT22;52512;47.650;8.578;2023-04-28T06:46:50;11.70;99.90
65770;DHT22;52512;47.650;8.578;2023-04-28T06:49:16;11.70;99.90
65770;DHT22;52512;47.650;8.578;2023-04-28T06:51:43;11.70;99.90
65770;DHT22;52512;47.650;8.578;2023-04-28T06:54:09;11.70;99.90
65770;DHT22;52512;47.650;8.578;2023-04-28T06:56:35;11.70;99.90
65770;DHT22;52512;47.650;8.578;2023-04-28T06:59:01;11.70;99.90
65770;DHT22;52512;47.650;8.578;2023-04-28T07:01:27;11.70;99.90
65770;DHT22;52512;47.650;8.578;2023-04-28T07:03:53;11.70;99.90
65770;DHT22;52512;47.650;8.578;2023-04-28T07:06:19;11.80;99.90
65770;DHT22;52512;47.650;8.578;2023-04-28T07:08:45;11.80;99.90
65770;DHT22;52512;47.650;8.578;2023-04-28T07:11:11;11.80;99.90
65770;DHT22;52512;47.650;8.578;2023-04-28T07:13:36;11.80;99.90
65770;DHT22;52512;47.650;8.578;2023-04-28T07:16:03;11.80;99.90
65770;DHT22;52512;47.650;8.578;2023-04-28T07:18:28;11.80;99.90
65770;DHT22;52512;47.650;8.578;2023-04-28T07:20:54;11.80;99.90
65770;DHT22;52512;47.650;8.578;2023-04-28T07:23:20;11.90;99.90
65770;DHT22;52512;47.650;8.578;2023-04-28T07:25:45;11.90;99.90
65770;DHT22;52512;47.650;8.578;2023-04-28T07:28:12;11.90;99.90
65770;DHT22;52512;47.650;8.578;2023-04-28T07:30:38;11.90;99.90
65770;DHT22;52512;47.650;8.578;2023-04-28T07:33:04;11.90;99.90
65770;DHT22;52512;47.650;8.578;2023-04-28T07:35:30;11.90;99.90
65770;DHT22;52512;47.650;8.578;2023-04-28T07:37:56;11.90;99.90
65770;DHT22;52512;47.650;8.578;2023-04-28T07:40:22;11.90;99.90
65770;DHT22;52512;47.650;8.578;2023-04-28T07:42:48;11.90;99.90
65770;DHT22;52512;47.650;8.578;2023-04-28T07:45:14;11.90;99.90
65770;DHT22;52512;47.650;8.578;2023-04-28T07:47:43;11.90;99.90
65770;DHT22;52512;47.650;8.578;2023-04-28T07:50:10;12.00;99.90
65770;DHT22;52512;47.650;8.578;2023-04-28T07:52:36;12.00;99.90
65770;DHT22;52512;47.650;8.578;2023-04-28T07:55:01;12.00;99.90
65770;DHT22;52512;47.650;8.578;2023-04-28T07:57:29;12.00;99.90
65770;DHT22;52512;47.650;8.578;2023-04-28T07:59:55;12.00;99.90
65770;DHT22;52512;47.650;8.578;2023-04-28T08:02:20;12.10;99.90
65770;DHT22;52512;47.650;8.578;2023-04-28T08:04:46;12.00;99.90
65770;DHT22;52512;47.650;8.578;2023-04-28T08:07:12;12.10;99.90
65770;DHT22;52512;47.650;8.578;2023-04-28T08:09:38;12.10;99.90
65770;DHT22;52512;47.650;8.578;2023-04-28T08:12:06;12.10;99.90
65770;DHT22;52512;47.650;8.578;2023-04-28T08:14:32;12.10;99.90
65770;DHT22;52512;47.650;8.578;2023-04-28T08:16:57;12.10;99.90
65770;DHT22;52512;47.650;8.578;2023-04-28T08:19:23;12.10;99.90
65770;DHT22;52512;47.650;8.578;2023-04-28T08:21:49;12.10;99.90
65770;DHT22;52512;47.650;8.578;2023-04-28T08:24:14;12.10;99.90
65770;DHT22;52512;47.650;8.578;2023-04-28T08:26:40;12.20;99.90
65770;DHT22;52512;47.650;8.578;2023-04-28T08:29:06;12.20;99.90
65770;DHT22;52512;47.650;8.578;2023-04-28T08:31:31;12.20;99.90
65770;DHT22;52512;47.650;8.578;2023-04-28T08:33:57;12.20;99.90
65770;DHT22;52512;47.650;8.578;2023-04-28T08:36:24;12.20;99.90
65770;DHT22;52512;47.650;8.578;2023-04-28T08:38:50;12.20;99.90
65770;DHT22;52512;47.650;8.578;2023-04-28T08:41:17;12.20;99.90
65770;DHT22;52512;47.650;8.578;2023-04-28T08:43:44;12.30;99.90
65770;DHT22;52512;47.650;8.578;2023-04-28T08:46:10;12.30;99.90
65770;DHT22;52512;47.650;8.578;2023-04-28T08:48:40;12.30;99.90
65770;DHT22;52512;47.650;8.578;2023-04-28T08:51:07;12.40;99.90
65770;DHT22;52512;47.650;8.578;2023-04-28T08:53:37;12.40;99.90
65770;DHT22;52512;47.650;8.578;2023-04-28T08:56:05;12.40;99.90
65770;DHT22;52512;47.650;8.578;2023-04-28T08:58:34;12.40;99.90
65770;DHT22;52512;47.650;8.578;2023-04-28T09:01:01;12.50;99.90
65770;DHT22;52512;47.650;8.578;2023-04-28T09:03:29;12.50;99.90
65770;DHT22;52512;47.650;8.578;2023-04-28T09:05:56;12.50;99.90
65770;DHT22;52512;47.650;8.578;2023-04-28T09:08:21;12.50;99.90
65770;DHT22;52512;47.650;8.578;2023-04-28T09:10:47;12.50;99.90
65770;DHT22;52512;47.650;8.578;2023-04-28T09:13:25;12.50;99.90
65770;DHT22;52512;47.650;8.578;2023-04-28T09:15:58;12.50;99.90
65770;DHT22;52512;47.650;8.578;2023-04-28T09:18:24;12.60;99.90
65770;DHT22;52512;47.650;8.578;2023-04-28T09:20:49;12.60;99.90
65770;DHT22;52512;47.650;8.578;2023-04-28T09:23:20;12.60;99.90
65770;DHT22;52512;47.650;8.578;2023-04-28T09:28:29;12.70;99.90
65770;DHT22;52512;47.650;8.578;2023-04-28T09:30:55;12.70;99.90
65770;DHT22;52512;47.650;8.578;2023-04-28T09:33:21;12.70;99.90
65770;DHT22;52512;47.650;8.578;2023-04-28T09:35:47;12.70;99.90
65770;DHT22;52512;47.650;8.578;2023-04-28T09:38:14;12.70;99.90
65770;DHT22;52512;47.650;8.578;2023-04-28T09:40:59;12.70;99.90
65770;DHT22;52512;47.650;8.578;2023-04-28T09:43:32;12.70;99.90
65770;DHT22;52512;47.650;8.578;2023-04-28T09:46:01;12.70;99.90
65770;DHT22;52512;47.650;8.578;2023-04-28T09:48:35;12.70;99.90
65770;DHT22;52512;47.650;8.578;2023-04-28T09:51:05;12.70;99.90
65770;DHT22;52512;47.650;8.578;2023-04-28T09:53:33;12.70;99.90
65770;DHT22;52512;47.650;8.578;2023-04-28T09:56:00;12.80;99.90
65770;DHT22;52512;47.650;8.578;2023-04-28T09:58:28;12.80;99.90
65770;DHT22;52512;47.650;8.578;2023-04-28T10:00:58;12.80;99.90
65770;DHT22;52512;47.650;8.578;2023-04-28T10:03:27;12.80;99.90
65770;DHT22;52512;47.650;8.578;2023-04-28T10:05:53;12.90;99.90
65770;DHT22;52512;47.650;8.578;2023-04-28T10:08:20;12.90;99.90
65770;DHT22;52512;47.650;8.578;2023-04-28T10:10:50;12.90;99.90
65770;DHT22;52512;47.650;8.578;2023-04-28T10:13:22;12.90;99.90
65770;DHT22;52512;47.650;8.578;2023-04-28T10:15:49;12.90;99.90
65770;DHT22;52512;47.650;8.578;2023-04-28T10:18:16;12.90;99.90
65770;DHT22;52512;47.650;8.578;2023-04-28T10:20:44;13.00;99.90
65770;DHT22;52512;47.650;8.578;2023-04-28T10:26:09;13.00;99.90
65770;DHT22;52512;47.650;8.578;2023-04-28T10:28:36;13.00;99.90
65770;DHT22;52512;47.650;8.578;2023-04-28T10:33:36;13.10;99.90
65770;DHT22;52512;47.650;8.578;2023-04-28T10:36:02;13.10;99.90
65770;DHT22;52512;47.650;8.578;2023-04-28T10:38:28;13.10;99.90
65770;DHT22;52512;47.650;8.578;2023-04-28T10:40:54;13.20;99.90
65770;DHT22;52512;47.650;8.578;2023-04-28T10:48:20;13.20;99.90
65770;DHT22;52512;47.650;8.578;2023-04-28T10:56:14;13.30;99.90
65770;DHT22;52512;47.650;8.578;2023-04-28T10:58:41;13.30;99.90
65770;DHT22;52512;47.650;8.578;2023-04-28T11:06:31;13.30;99.90
65770;DHT22;52512;47.650;8.578;2023-04-28T11:11:32;13.40;99.90
65770;DHT22;52512;47.650;8.578;2023-04-28T11:16:53;13.40;99.90
65770;DHT22;52512;47.650;8.578;2023-04-28T11:19:23;13.40;99.90
65770;DHT22;52512;47.650;8.578;2023-04-28T11:21:51;13.50;99.90
65770;DHT22;52512;47.650;8.578;2023-04-28T11:24:18;13.50;99.90
65770;DHT22;52512;47.650;8.578;2023-04-28T11:26:44;13.50;99.90
65770;DHT22;52512;47.650;8.578;2023-04-28T11:29:11;13.50;99.90
65770;DHT22;52512;47.650;8.578;2023-04-28T11:31:37;13.50;99.90
65770;DHT22;52512;47.650;8.578;2023-04-28T11:34:04;13.50;99.90
65770;DHT22;52512;47.650;8.578;2023-04-28T11:39:04;13.60;99.90
65770;DHT22;52512;47.650;8.578;2023-04-28T11:41:31;13.60;99.90
65770;DHT22;52512;47.650;8.578;2023-04-28T11:43:59;13.60;99.90
65770;DHT22;52512;47.650;8.578;2023-04-28T11:46:25;13.70;99.90
65770;DHT22;52512;47.650;8.578;2023-04-28T11:49:09;13.70;99.90
65770;DHT22;52512;47.650;8.578;2023-04-28T11:51:38;13.70;99.90
65770;DHT22;52512;47.650;8.578;2023-04-28T11:54:05;13.70;99.90
65770;DHT22;52512;47.650;8.578;2023-04-28T11:56:41;13.80;99.90
65770;DHT22;52512;47.650;8.578;2023-04-28T11:59:08;13.80;99.90
65770;DHT22;52512;47.650;8.578;2023-04-28T12:01:53;13.80;99.90
65770;DHT22;52512;47.650;8.578;2023-04-28T12:04:26;13.90;99.90
65770;DHT22;52512;47.650;8.578;2023-04-28T12:07:00;13.90;99.90
65770;DHT22;52512;47.650;8.578;2023-04-28T12:09:26;14.00;99.90
65770;DHT22;52512;47.650;8.578;2023-04-28T12:12:13;14.00;99.90
65770;DHT22;52512;47.650;8.578;2023-04-28T12:15:00;14.00;99.90
65770;DHT22;52512;47.650;8.578;2023-04-28T12:17:28;14.10;99.90
65770;DHT22;52512;47.650;8.578;2023-04-28T12:19:55;14.10;99.90
65770;DHT22;52512;47.650;8.578;2023-04-28T12:22:22;14.10;99.90
65770;DHT22;52512;47.650;8.578;2023-04-28T12:25:09;14.10;99.90
65770;DHT22;52512;47.650;8.578;2023-04-28T12:27:36;14.20;99.90
65770;DHT22;52512;47.650;8.578;2023-04-28T12:32:47;14.20;99.90
65770;DHT22;52512;47.650;8.578;2023-04-28T12:35:13;14.30;99.90
65770;DHT22;52512;47.650;8.578;2023-04-28T12:37:38;14.40;99.90
65770;DHT22;52512;47.650;8.578;2023-04-28T12:40:06;14.50;99.90
65770;DHT22;52512;47.650;8.578;2023-04-28T12:42:33;14.50;99.90
65770;DHT22;52512;47.650;8.578;2023-04-28T12:44:59;14.60;99.90
65770;DHT22;52512;47.650;8.578;2023-04-28T12:47:25;14.60;99.90
65770;DHT22;52512;47.650;8.578;2023-04-28T12:49:50;14.60;99.90
65770;DHT22;52512;47.650;8.578;2023-04-28T12:52:18;14.70;99.90
65770;DHT22;52512;47.650;8.578;2023-04-28T12:54:44;14.80;99.90
65770;DHT22;52512;47.650;8.578;2023-04-28T12:57:16;14.90;99.90
65770;DHT22;52512;47.650;8.578;2023-04-28T12:59:43;14.90;99.90
65770;DHT22;52512;47.650;8.578;2023-04-28T13:02:09;15.00;99.90
65770;DHT22;52512;47.650;8.578;2023-04-28T13:04:35;15.00;99.90
65770;DHT22;52512;47.650;8.578;2023-04-28T13:07:01;15.10;99.90
65770;DHT22;52512;47.650;8.578;2023-04-28T13:09:27;15.20;99.90
65770;DHT22;52512;47.650;8.578;2023-04-28T13:11:55;15.30;99.90
65770;DHT22;52512;47.650;8.578;2023-04-28T13:14:21;15.40;99.90
65770;DHT22;52512;47.650;8.578;2023-04-28T13:16:47;15.50;99.90
65770;DHT22;52512;47.650;8.578;2023-04-28T13:19:13;15.60;99.90
65770;DHT22;52512;47.650;8.578;2023-04-28T13:21:42;15.60;99.90
65770;DHT22;52512;47.650;8.578;2023-04-28T13:24:09;15.70;99.90
65770;DHT22;52512;47.650;8.578;2023-04-28T13:26:35;15.80;99.90
65770;DHT22;52512;47.650;8.578;2023-04-28T13:29:02;15.90;99.90
65770;DHT22;52512;47.650;8.578;2023-04-28T13:31:29;16.00;99.90
65770;DHT22;52512;47.650;8.578;2023-04-28T13:33:55;16.10;99.90
65770;DHT22;52512;47.650;8.578;2023-04-28T13:36:21;16.20;99.90
65770;DHT22;52512;47.650;8.578;2023-04-28T13:38:48;16.20;99.90
65770;DHT22;52512;47.650;8.578;2023-04-28T13:41:17;16.30;99.90
65770;DHT22;52512;47.650;8.578;2023-04-28T13:43:43;16.30;99.90
65770;DHT22;52512;47.650;8.578;2023-04-28T13:46:09;16.50;99.90
65770;DHT22;52512;47.650;8.578;2023-04-28T13:48:35;16.50;99.90
65770;DHT22;52512;47.650;8.578;2023-04-28T13:51:02;16.60;99.90
65770;DHT22;52512;47.650;8.578;2023-04-28T13:53:29;16.70;99.90
65770;DHT22;52512;47.650;8.578;2023-04-28T13:55:54;16.90;99.90
65770;DHT22;52512;47.650;8.578;2023-04-28T13:58:25;17.00;99.90
65770;DHT22;52512;47.650;8.578;2023-04-28T14:00:55;17.20;99.90
65770;DHT22;52512;47.650;8.578;2023-04-28T14:03:24;17.30;99.90
65770;DHT22;52512;47.650;8.578;2023-04-28T14:05:51;17.20;99.90
65770;DHT22;52512;47.650;8.578;2023-04-28T14:08:17;17.30;99.90
65770;DHT22;52512;47.650;8.578;2023-04-28T14:10:43;17.30;99.90
65770;DHT22;52512;47.650;8.578;2023-04-28T14:13:09;17.40;99.90
65770;DHT22;52512;47.650;8.578;2023-04-28T14:15:35;17.40;99.90
65770;DHT22;52512;47.650;8.578;2023-04-28T14:18:01;17.40;99.90
65770;DHT22;52512;47.650;8.578;2023-04-28T14:20:27;17.40;99.90
65770;DHT22;52512;47.650;8.578;2023-04-28T14:22:53;17.40;99.90
65770;DHT22;52512;47.650;8.578;2023-04-28T14:25:19;17.30;99.90
65770;DHT22;52512;47.650;8.578;2023-04-28T14:27:48;17.30;99.90
65770;DHT22;52512;47.650;8.578;2023-04-28T14:30:14;17.40;99.90
65770;DHT22;52512;47.650;8.578;2023-04-28T14:32:40;17.30;99.90
65770;DHT22;52512;47.650;8.578;2023-04-28T14:35:06;17.30;99.90
65770;DHT22;52512;47.650;8.578;2023-04-28T14:37:33;17.40;99.90
65770;DHT22;52512;47.650;8.578;2023-04-28T14:39:59;17.30;99.90
65770;DHT22;52512;47.650;8.578;2023-04-28T14:42:30;17.30;99.90
65770;DHT22;52512;47.650;8.578;2023-04-28T14:44:57;17.40;99.90
65770;DHT22;52512;47.650;8.578;2023-04-28T14:47:24;17.40;99.90
65770;DHT22;52512;47.650;8.578;2023-04-28T14:49:51;17.40;99.90
65770;DHT22;52512;47.650;8.578;2023-04-28T14:52:19;17.30;99.90
65770;DHT22;52512;47.650;8.578;2023-04-28T14:54:47;17.40;99.90
65770;DHT22;52512;47.650;8.578;2023-04-28T14:57:13;17.30;99.90
65770;DHT22;52512;47.650;8.578;2023-04-28T14:59:39;17.30;99.90
65770;DHT22;52512;47.650;8.578;2023-04-28T15:02:06;17.30;99.90
65770;DHT22;52512;47.650;8.578;2023-04-28T15:04:32;17.30;99.90
65770;DHT22;52512;47.650;8.578;2023-04-28T15:06:59;17.30;99.90
65770;DHT22;52512;47.650;8.578;2023-04-28T15:09:25;17.20;99.90
65770;DHT22;52512;47.650;8.578;2023-04-28T15:11:51;17.20;99.90
65770;DHT22;52512;47.650;8.578;2023-04-28T15:14:17;17.20;99.90
65770;DHT22;52512;47.650;8.578;2023-04-28T15:16:43;17.20;99.90
65770;DHT22;52512;47.650;8.578;2023-04-28T15:19:09;17.20;99.90
65770;DHT22;52512;47.650;8.578;2023-04-28T15:21:35;17.20;99.90
65770;DHT22;52512;47.650;8.578;2023-04-28T15:24:01;17.10;99.90
65770;DHT22;52512;47.650;8.578;2023-04-28T15:26:26;17.10;99.90
65770;DHT22;52512;47.650;8.578;2023-04-28T15:28:53;17.10;99.90
65770;DHT22;52512;47.650;8.578;2023-04-28T15:31:19;17.10;99.90
65770;DHT22;52512;47.650;8.578;2023-04-28T15:33:45;17.00;99.90
65770;DHT22;52512;47.650;8.578;2023-04-28T15:36:11;17.00;99.90
65770;DHT22;52512;47.650;8.578;2023-04-28T15:38:38;17.00;99.90
65770;DHT22;52512;47.650;8.578;2023-04-28T15:41:06;17.00;99.90
65770;DHT22;52512;47.650;8.578;2023-04-28T15:43:32;17.00;99.90
65770;DHT22;52512;47.650;8.578;2023-04-28T15:45:58;16.90;99.90
65770;DHT22;52512;47.650;8.578;2023-04-28T15:48:25;16.90;99.90
65770;DHT22;52512;47.650;8.578;2023-04-28T15:50:51;16.90;99.90
65770;DHT22;52512;47.650;8.578;2023-04-28T15:53:17;16.90;99.90
65770;DHT22;52512;47.650;8.578;2023-04-28T15:55:43;16.90;99.90
65770;DHT22;52512;47.650;8.578;2023-04-28T15:58:10;16.90;99.90
65770;DHT22;52512;47.650;8.578;2023-04-28T16:00:35;16.90;99.90